createdAt,value
2018-07-20T00:00:39.962Z,3.73
2018-07-20T00:03:07.965Z,4.50
2018-07-20T00:05:35.170Z,3.90
2018-07-20T00:08:02.400Z,6.43
2018-07-20T00:10:29.527Z,3.10
2018-07-20T00:12:56.713Z,3.37
2018-07-20T00:15:23.960Z,4.00
2018-07-20T00:17:51.141Z,2.87
2018-07-20T00:20:18.372Z,5.73
2018-07-20T00:22:45.553Z,10.20
2018-07-20T00:25:12.802Z,7.40
2018-07-20T00:27:40.001Z,3.97
2018-07-20T00:30:07.195Z,6.80
2018-07-20T00:32:34.381Z,5.63
2018-07-20T00:35:01.615Z,9.50
2018-07-20T00:37:28.942Z,4.60
2018-07-20T00:39:56.145Z,5.50
2018-07-20T00:42:23.373Z,3.43
2018-07-20T00:44:50.552Z,2.93
2018-07-20T00:47:17.733Z,5.37
2018-07-20T00:49:44.933Z,7.50
2018-07-20T00:52:12.116Z,5.37
2018-07-20T00:54:39.393Z,8.10
2018-07-20T00:57:06.608Z,3.97
2018-07-20T00:59:33.834Z,4.13
2018-07-20T01:02:01.008Z,5.87
2018-07-20T01:04:28.185Z,2.60
2018-07-20T01:06:55.373Z,3.20
2018-07-20T01:09:22.587Z,4.03
2018-07-20T01:11:49.782Z,6.40
2018-07-20T01:14:16.953Z,5.20
2018-07-20T01:16:44.181Z,9.10
2018-07-20T01:19:11.357Z,4.70
2018-07-20T01:21:38.611Z,4.87
2018-07-20T02:46:05.141Z,6.17
2018-07-20T02:48:32.319Z,7.63
2018-07-20T02:50:59.481Z,8.87
2018-07-20T02:53:26.688Z,8.73
2018-07-20T02:55:53.880Z,7.07
2018-07-20T02:58:21.413Z,5.70
2018-07-20T03:00:48.606Z,4.13
2018-07-20T03:03:15.781Z,9.77
2018-07-20T03:05:43.239Z,9.47
2018-07-20T03:08:10.439Z,7.63
2018-07-20T03:10:37.626Z,7.07
2018-07-20T03:13:05.367Z,8.83
2018-07-20T03:15:32.545Z,5.20
2018-07-20T03:17:59.694Z,8.57
2018-07-20T03:20:26.936Z,5.63
2018-07-20T03:22:54.125Z,5.60
2018-07-20T03:25:21.356Z,6.90
2018-07-20T03:27:48.714Z,6.10
2018-07-20T03:30:15.931Z,9.03
2018-07-20T03:32:43.162Z,6.00
2018-07-20T03:35:10.574Z,7.27
2018-07-20T03:37:37.772Z,4.57
2018-07-20T03:40:05.205Z,5.67
2018-07-20T03:42:32.772Z,10.87
2018-07-20T03:44:59.949Z,11.07
2018-07-20T03:47:27.180Z,9.60
2018-07-20T03:49:54.373Z,9.53
2018-07-20T03:52:21.566Z,7.60
2018-07-20T03:54:48.769Z,8.43
2018-07-20T03:57:16.313Z,10.87
2018-07-20T03:59:43.533Z,10.47
2018-07-20T04:02:10.744Z,12.43
2018-07-20T04:04:38.503Z,11.57
2018-07-20T04:07:05.759Z,11.17
2018-07-20T04:09:32.921Z,10.07
2018-07-20T04:12:00.107Z,14.33
2018-07-20T04:14:27.281Z,9.33
2018-07-20T04:16:54.793Z,27.97
2018-07-20T04:19:21.949Z,38.37
2018-07-20T04:21:49.127Z,42.87
2018-07-20T04:24:16.760Z,39.77
2018-07-20T04:26:43.940Z,33.07
2018-07-20T04:29:11.105Z,27.57
2018-07-20T04:31:38.357Z,27.83
2018-07-20T04:34:05.506Z,21.20
2018-07-20T04:36:32.769Z,16.80
2018-07-20T04:39:00.077Z,15.87
2018-07-20T04:41:27.249Z,10.87
2018-07-20T04:43:54.444Z,10.17
2018-07-20T04:46:21.605Z,6.87
2018-07-20T04:48:48.848Z,11.23
2018-07-20T04:51:16.067Z,11.70
2018-07-20T04:53:43.230Z,10.27
2018-07-20T04:56:10.402Z,8.90
2018-07-20T04:58:37.570Z,5.00
2018-07-20T05:01:04.817Z,4.83
2018-07-20T05:03:31.980Z,8.23
2018-07-20T05:05:59.206Z,8.27
2018-07-20T05:08:26.366Z,8.73
2018-07-20T05:10:53.522Z,7.07
2018-07-20T05:13:22.739Z,9.13
2018-07-20T05:15:49.898Z,3.07
2018-07-20T05:18:19.095Z,6.30
2018-07-20T05:20:46.268Z,6.87
2018-07-20T05:23:13.480Z,12.47
2018-07-20T05:25:40.645Z,3.70
2018-07-20T05:28:07.799Z,12.33
2018-07-20T05:30:34.957Z,7.47
2018-07-20T05:33:02.122Z,8.70
2018-07-20T05:35:31.330Z,14.50
2018-07-20T05:37:58.493Z,10.00
2018-07-20T05:40:25.638Z,5.17
2018-07-20T05:42:52.805Z,8.03
2018-07-20T05:45:19.969Z,8.77
2018-07-20T05:47:47.125Z,9.77
2018-07-20T05:50:14.292Z,3.77
2018-07-20T05:52:41.469Z,6.10
2018-07-20T05:55:08.704Z,8.97
2018-07-20T05:57:36.014Z,10.80
2018-07-20T06:00:03.821Z,11.07
2018-07-20T06:02:30.993Z,10.80
2018-07-20T06:04:58.536Z,6.17
2018-07-20T06:07:25.673Z,7.30
2018-07-20T06:09:52.829Z,5.40
2018-07-20T06:12:20.003Z,6.43
2018-07-20T06:14:47.165Z,7.23
2018-07-20T06:17:14.345Z,7.97
2018-07-20T06:19:41.529Z,10.23
2018-07-20T06:22:08.728Z,8.13
2018-07-20T06:24:35.937Z,13.17
2018-07-20T06:27:03.105Z,9.37
2018-07-20T06:29:30.757Z,8.17
2018-07-20T06:31:57.922Z,7.23
2018-07-20T06:34:25.119Z,8.17
2018-07-20T06:36:52.297Z,9.60
2018-07-20T06:39:23.518Z,6.97
2018-07-20T06:41:50.673Z,7.93
2018-07-20T06:44:17.863Z,9.70
2018-07-20T06:46:45.092Z,8.03
2018-07-20T06:49:12.265Z,11.20
2018-07-20T06:51:39.803Z,6.43
2018-07-20T06:54:06.969Z,6.93
2018-07-20T06:56:34.170Z,5.83
2018-07-20T06:59:01.341Z,5.90
2018-07-20T07:01:28.841Z,6.30
2018-07-20T07:03:56.002Z,6.80
2018-07-20T07:06:23.326Z,5.13
2018-07-20T07:08:50.503Z,8.80
2018-07-20T07:11:17.677Z,4.80
2018-07-20T07:13:50.856Z,5.33
2018-07-20T07:16:18.013Z,5.00
2018-07-20T07:18:47.457Z,6.13
2018-07-20T07:21:14.665Z,4.37
2018-07-20T07:23:41.882Z,3.77
2018-07-20T07:26:09.001Z,8.13
2018-07-20T07:28:36.145Z,4.00
2018-07-20T07:31:03.295Z,9.70
2018-07-20T07:33:30.457Z,5.90
2018-07-20T07:35:57.925Z,8.83
2018-07-20T07:38:25.240Z,3.90
2018-07-20T07:40:52.408Z,6.03
2018-07-20T07:43:19.589Z,11.10
2018-07-20T07:45:46.765Z,7.93
2018-07-20T07:48:14.419Z,9.53
2018-07-20T07:50:41.599Z,12.93
2018-07-20T07:53:08.820Z,7.67
2018-07-20T07:55:42.760Z,4.50
2018-07-20T07:58:17.814Z,8.87
2018-07-20T08:00:52.200Z,9.17
2018-07-20T08:03:26.525Z,7.07
2018-07-20T08:06:00.657Z,8.30
2018-07-20T08:08:31.883Z,6.73
2018-07-20T08:13:41.854Z,6.67
2018-07-20T08:16:16.487Z,5.90
2018-07-20T08:18:50.132Z,4.73
2018-07-20T08:21:22.537Z,9.80
2018-07-20T08:23:50.197Z,5.00
2018-07-20T08:26:17.365Z,6.33
2018-07-20T08:28:44.829Z,7.20
2018-07-20T08:31:11.985Z,8.40
2018-07-20T08:33:39.165Z,6.23
2018-07-20T08:36:06.384Z,5.97
2018-07-20T08:38:33.569Z,7.27
2018-07-20T08:41:00.738Z,7.70
2018-07-20T08:43:27.901Z,14.53
2018-07-20T08:45:55.068Z,19.83
2018-07-20T08:48:22.237Z,8.70
2018-07-20T08:50:49.709Z,5.07
2018-07-20T08:53:16.889Z,9.40
2018-07-20T08:55:44.065Z,9.67
2018-07-20T08:58:11.617Z,8.77
2018-07-20T09:00:38.796Z,10.50
2018-07-20T09:03:05.971Z,5.27
2018-07-20T09:05:33.185Z,6.40
2018-07-20T09:08:00.349Z,3.03
2018-07-20T09:10:27.501Z,8.10
2018-07-20T09:12:56.709Z,2.70
2018-07-20T09:15:23.890Z,6.63
2018-07-20T09:17:51.073Z,6.20
2018-07-20T09:20:18.292Z,12.23
2018-07-20T09:22:45.517Z,4.73
2018-07-20T09:25:12.889Z,6.73
2018-07-20T09:27:40.096Z,6.63
2018-07-20T09:30:07.257Z,4.03
2018-07-20T09:32:34.433Z,6.33
2018-07-20T09:35:01.574Z,5.07
2018-07-20T09:37:28.741Z,6.60
2018-07-20T09:39:55.930Z,7.13
2018-07-20T09:42:23.101Z,4.33
2018-07-20T09:44:50.257Z,5.20
2018-07-20T09:47:17.395Z,7.43
2018-07-20T09:49:44.562Z,8.77
2018-07-20T09:52:11.742Z,3.00
2018-07-20T09:54:38.907Z,6.83
2018-07-20T09:57:06.118Z,6.23
2018-07-20T09:59:33.309Z,4.40
2018-07-20T10:02:01.372Z,5.83
2018-07-20T10:07:04.621Z,7.63
2018-07-20T10:09:31.800Z,6.97
2018-07-20T10:11:58.977Z,3.63
2018-07-20T10:14:26.172Z,3.57
2018-07-20T10:16:53.412Z,4.43
2018-07-20T10:19:20.649Z,3.63
2018-07-20T10:21:47.876Z,7.30
2018-07-20T10:24:15.048Z,4.87
2018-07-20T10:26:42.225Z,6.50
2018-07-20T10:29:09.637Z,5.67
2018-07-20T10:31:36.793Z,6.40
2018-07-20T10:34:03.982Z,3.30
2018-07-20T10:36:31.153Z,10.37
2018-07-20T10:38:58.324Z,7.10
2018-07-20T10:41:27.810Z,9.10
2018-07-20T10:43:55.003Z,6.33
2018-07-20T10:46:22.153Z,5.03
2018-07-20T10:48:49.318Z,6.27
2018-07-20T10:51:16.486Z,3.63
2018-07-20T10:53:43.665Z,3.27
2018-07-20T10:56:11.014Z,2.93
2018-07-20T10:58:38.218Z,9.07
2018-07-20T11:01:05.415Z,5.50
2018-07-20T11:03:35.176Z,3.30
2018-07-20T11:06:02.349Z,4.17
2018-07-20T11:08:29.548Z,5.50
2018-07-20T11:10:56.721Z,10.33
2018-07-20T11:13:23.913Z,6.77
2018-07-20T11:15:51.133Z,3.27
2018-07-20T11:18:18.725Z,5.23
2018-07-20T11:20:45.907Z,3.40
2018-07-20T11:23:13.109Z,4.70
2018-07-20T11:25:44.285Z,2.70
2018-07-20T11:28:11.470Z,6.43
2018-07-20T11:30:38.637Z,4.43
2018-07-20T11:33:06.157Z,4.03
2018-07-20T11:35:33.316Z,5.00
2018-07-20T11:38:00.497Z,5.00
2018-07-20T11:40:27.692Z,5.53
2018-07-20T11:42:54.829Z,5.73
2018-07-20T11:45:22.044Z,7.17
2018-07-20T11:47:49.497Z,3.73
2018-07-20T11:50:16.717Z,4.57
2018-07-20T11:52:43.896Z,2.70
2018-07-20T11:55:11.477Z,4.63
2018-07-20T11:57:38.661Z,5.53
2018-07-20T12:00:05.970Z,3.37
2018-07-20T12:02:33.185Z,5.63
2018-07-20T12:05:00.409Z,7.43
2018-07-20T12:07:27.565Z,3.07
2018-07-20T12:09:56.869Z,2.50
2018-07-20T12:12:24.045Z,3.97
2018-07-20T12:14:51.658Z,4.90
2018-07-20T12:17:19.149Z,9.17
2018-07-20T12:19:46.353Z,2.77
2018-07-20T12:22:13.473Z,3.47
2018-07-20T12:24:41.025Z,3.30
2018-07-20T12:27:08.449Z,2.67
2018-07-20T12:29:35.617Z,6.23
2018-07-20T12:32:02.809Z,4.93
2018-07-20T12:34:29.972Z,3.53
2018-07-20T12:36:57.158Z,2.50
2018-07-20T12:39:24.291Z,4.97
2018-07-20T12:41:51.467Z,4.00
2018-07-20T12:44:19.085Z,5.37
2018-07-20T12:46:46.249Z,3.13
2018-07-20T12:49:13.429Z,6.07
2018-07-20T12:51:40.603Z,4.67
2018-07-20T12:54:07.768Z,5.57
2018-07-20T12:56:34.941Z,2.80
2018-07-20T12:59:02.135Z,4.17
2018-07-20T13:01:29.265Z,6.23
2018-07-20T13:03:56.741Z,4.83
2018-07-20T13:06:23.922Z,3.60
2018-07-20T13:08:51.133Z,6.20
2018-07-20T13:11:18.310Z,2.00
2018-07-20T13:13:45.499Z,4.63
2018-07-20T13:16:12.642Z,5.97
2018-07-20T13:18:39.822Z,2.80
2018-07-20T13:21:07.064Z,5.50
2018-07-20T13:23:34.216Z,4.75
2018-07-20T13:26:01.366Z,3.87
2018-07-20T13:28:30.501Z,3.60
2018-07-20T13:30:59.748Z,3.35
2018-07-20T13:33:26.921Z,3.57
2018-07-20T13:35:54.169Z,2.55
2018-07-20T13:38:21.297Z,3.87
2018-07-20T13:40:52.437Z,4.70
2018-07-20T13:43:19.600Z,5.45
2018-07-20T13:45:46.763Z,4.70
2018-07-20T13:48:14.237Z,3.33
2018-07-20T13:50:41.383Z,4.35
2018-07-20T13:53:08.569Z,2.97
2018-07-20T13:55:35.724Z,3.02
2018-07-20T13:58:02.875Z,5.30
2018-07-20T14:00:30.320Z,6.63
2018-07-20T14:02:57.449Z,2.97
2018-07-20T14:05:24.716Z,7.20
2018-07-20T14:07:51.903Z,4.35
2018-07-20T14:10:19.057Z,3.95
2018-07-20T14:12:46.195Z,4.92
2018-07-20T14:15:13.341Z,2.65
2018-07-20T14:17:40.478Z,3.37
2018-07-20T14:20:07.709Z,2.83
2018-07-20T14:22:34.862Z,3.73
2018-07-20T14:25:02.048Z,3.63
2018-07-20T14:27:29.209Z,4.43
2018-07-20T14:29:56.373Z,4.57
2018-07-20T14:32:23.533Z,4.00
2018-07-20T14:34:52.957Z,3.93
2018-07-20T14:37:20.097Z,4.10
2018-07-20T14:39:47.251Z,3.00
2018-07-20T14:42:14.405Z,9.20
2018-07-20T14:44:41.530Z,3.42
2018-07-20T14:47:09.070Z,2.83
2018-07-20T14:49:36.217Z,4.87
2018-07-20T14:52:03.961Z,4.83
2018-07-20T14:54:31.104Z,5.33
2018-07-20T14:56:58.257Z,9.88
2018-07-20T14:59:25.637Z,6.80
2018-07-20T15:01:52.790Z,3.30
2018-07-20T15:04:19.957Z,2.10
2018-07-20T15:06:47.152Z,4.40
2018-07-20T15:09:14.269Z,10.03
2018-07-20T15:11:41.464Z,5.87
2018-07-20T15:14:08.864Z,4.22
2018-07-20T15:16:36.049Z,6.80
2018-07-20T15:19:03.224Z,2.20
2018-07-20T15:21:30.754Z,2.57
2018-07-20T15:23:57.906Z,2.20
2018-07-20T15:26:25.078Z,2.37
2018-07-20T15:28:54.233Z,5.33
2018-07-20T15:31:25.381Z,4.87
2018-07-20T15:33:52.585Z,2.37
2018-07-20T15:36:19.669Z,8.13
2018-07-20T15:38:46.872Z,4.17
2018-07-20T15:41:14.105Z,3.58
2018-07-20T15:43:41.510Z,3.17
2018-07-20T15:46:09.501Z,6.67
2018-07-20T15:48:36.633Z,3.40
2018-07-20T15:51:03.777Z,3.50
2018-07-20T15:53:38.327Z,1.98
2018-07-20T15:55:58.630Z,4.50
2018-07-20T15:58:25.938Z,2.62
2018-07-20T16:00:53.385Z,8.60
2018-07-20T16:03:20.585Z,4.92
2018-07-20T16:05:47.754Z,10.35
2018-07-20T16:08:15.421Z,17.90
2018-07-20T16:10:42.637Z,4.80
2018-07-20T16:13:09.791Z,3.85
2018-07-20T16:15:36.949Z,4.10
2018-07-20T16:18:04.353Z,2.17
2018-07-20T16:20:31.501Z,4.53
2018-07-20T16:22:59.046Z,2.83
2018-07-20T16:25:26.194Z,9.27
2018-07-20T16:27:53.355Z,2.80
2018-07-20T16:30:24.813Z,4.40
2018-07-20T16:32:51.979Z,5.17
2018-07-20T16:35:19.725Z,3.40
2018-07-20T16:37:47.205Z,6.20
2018-07-20T16:40:14.376Z,2.85
2018-07-20T16:42:41.574Z,3.43
2018-07-20T16:45:08.757Z,7.20
2018-07-20T16:47:36.235Z,5.50
2018-07-20T16:50:03.725Z,3.87
2018-07-20T16:52:30.909Z,6.70
2018-07-20T16:55:04.144Z,4.50
2018-07-20T16:57:31.325Z,4.10
2018-07-20T16:59:58.474Z,3.50
2018-07-20T17:02:29.199Z,3.73
2018-07-20T17:04:56.381Z,2.60
2018-07-20T17:07:23.599Z,5.12
2018-07-20T17:09:51.073Z,2.07
2018-07-20T17:12:18.227Z,6.63
2018-07-20T17:14:45.395Z,5.10
2018-07-20T17:17:14.687Z,7.77
2018-07-20T17:19:42.022Z,2.83
2018-07-20T17:22:09.211Z,6.87
2018-07-20T17:24:36.343Z,7.20
2018-07-20T17:27:03.794Z,2.77
2018-07-20T17:29:30.983Z,2.80
2018-07-20T17:31:58.165Z,3.53
2018-07-20T17:34:25.307Z,4.53
2018-07-20T17:36:52.466Z,3.17
2018-07-20T17:39:19.661Z,1.90
2018-07-20T17:41:46.893Z,3.57
2018-07-20T17:44:14.737Z,2.20
2018-07-20T17:46:41.919Z,6.37
2018-07-20T17:49:09.085Z,3.00
2018-07-20T17:51:36.280Z,4.30
2018-07-20T17:54:03.474Z,4.80
2018-07-20T17:56:30.632Z,2.60
2018-07-20T17:58:57.789Z,8.00
2018-07-20T18:01:24.935Z,3.43
2018-07-20T18:03:52.079Z,3.47
2018-07-20T18:06:19.239Z,5.70
2018-07-20T18:08:46.573Z,3.23
2018-07-20T18:11:14.030Z,3.93
2018-07-20T18:13:41.717Z,7.60
2018-07-20T18:16:08.914Z,5.57
2018-07-20T18:18:36.125Z,5.03
2018-07-20T18:21:03.599Z,4.37
2018-07-20T18:23:30.757Z,5.03
2018-07-20T18:25:57.938Z,2.23
2018-07-20T18:28:25.102Z,3.93
2018-07-20T18:30:52.980Z,6.13
2018-07-20T18:33:20.189Z,5.53
2018-07-20T18:35:47.329Z,2.40
2018-07-20T18:38:14.597Z,4.50
2018-07-20T18:40:41.927Z,3.73
2018-07-20T18:43:09.109Z,2.13
2018-07-20T18:45:36.264Z,4.63
2018-07-20T18:48:03.413Z,3.57
2018-07-20T18:50:30.549Z,2.10
2018-07-20T18:52:57.736Z,3.63
2018-07-20T18:55:24.893Z,3.07
2018-07-20T18:57:52.050Z,3.00
2018-07-20T19:00:19.212Z,3.13
2018-07-20T19:02:46.364Z,4.97
2018-07-20T19:05:13.553Z,14.37
2018-07-20T19:07:40.686Z,4.33
2018-07-20T19:10:07.865Z,7.90
2018-07-20T19:12:35.025Z,1.93
2018-07-20T19:15:02.209Z,4.30
2018-07-20T19:17:29.377Z,3.30
2018-07-20T19:19:56.557Z,1.90
2018-07-20T19:22:23.714Z,2.17
2018-07-20T19:24:50.858Z,2.90
2018-07-20T19:27:18.009Z,7.33
2018-07-20T19:29:45.150Z,2.23
2018-07-20T19:32:12.684Z,2.03
2018-07-20T19:34:39.820Z,6.43
2018-07-20T19:37:06.974Z,3.33
2018-07-20T19:39:34.119Z,4.03
2018-07-20T19:42:01.285Z,5.67
2018-07-20T19:44:28.725Z,3.77
2018-07-20T19:46:55.935Z,1.80
2018-07-20T19:49:23.132Z,3.43
2018-07-20T19:51:50.302Z,4.73
2018-07-20T19:54:17.495Z,3.67
2018-07-20T19:56:44.693Z,8.87
2018-07-20T19:59:12.180Z,7.13
2018-07-20T20:01:39.349Z,6.97
2018-07-20T20:04:06.501Z,3.83
2018-07-20T20:06:33.661Z,1.20
2018-07-20T20:09:00.825Z,2.97
2018-07-20T20:11:27.982Z,4.73
2018-07-20T20:13:55.510Z,5.73
2018-07-20T20:16:22.655Z,10.87
2018-07-20T20:18:49.828Z,12.40
2018-07-20T20:21:17.258Z,9.07
2018-07-20T20:23:44.701Z,7.27
2018-07-20T20:26:11.912Z,18.13
2018-07-20T20:28:39.169Z,8.80
2018-07-20T20:31:06.346Z,7.00
2018-07-20T20:33:33.529Z,3.43
2018-07-20T20:36:00.776Z,2.93
2018-07-20T20:38:27.889Z,6.30
2018-07-20T20:40:55.117Z,4.53
2018-07-20T20:43:22.316Z,4.13
2018-07-20T20:45:49.474Z,36.47
2018-07-20T20:48:16.638Z,29.93
2018-07-20T20:50:43.816Z,22.37
2018-07-20T20:53:11.025Z,14.73
2018-07-20T20:55:38.184Z,15.00
2018-07-20T20:58:05.377Z,21.70
2018-07-20T21:00:32.605Z,10.53
2018-07-20T21:02:59.778Z,17.27
2018-07-20T21:05:27.112Z,9.30
2018-07-20T21:07:54.269Z,5.00
2018-07-20T21:10:21.489Z,9.80
2018-07-20T21:12:48.982Z,6.50
2018-07-20T21:15:16.143Z,4.83
2018-07-20T21:17:43.309Z,5.93
2018-07-20T21:20:10.862Z,5.50
2018-07-20T21:22:38.022Z,2.77
2018-07-20T21:25:05.735Z,5.20
2018-07-20T21:27:32.938Z,3.00
2018-07-20T21:30:00.100Z,2.70
2018-07-20T21:32:27.302Z,2.77
2018-07-20T21:34:54.827Z,4.13
2018-07-20T21:37:21.997Z,5.10
2018-07-20T21:39:49.178Z,4.13
2018-07-20T21:42:16.376Z,5.43
2018-07-20T21:44:43.731Z,2.47
2018-07-20T21:47:10.946Z,5.83
2018-07-20T21:49:38.156Z,4.93
2018-07-20T21:52:05.307Z,3.47
2018-07-20T21:54:32.470Z,7.40
2018-07-20T21:56:59.659Z,2.53
2018-07-20T21:59:27.190Z,1.93
2018-07-20T22:01:54.357Z,5.30
2018-07-20T22:04:21.543Z,2.70
2018-07-20T22:06:50.037Z,2.30
2018-07-20T22:09:17.245Z,2.80
2018-07-20T22:11:44.412Z,3.53
2018-07-20T22:14:11.601Z,6.73
2018-07-20T22:16:38.813Z,3.30
2018-07-20T22:19:05.984Z,5.47
2018-07-20T22:21:33.424Z,3.33
2018-07-20T22:24:00.579Z,3.37
2018-07-20T22:26:27.742Z,1.50
2018-07-20T22:28:54.905Z,3.93
2018-07-20T22:31:22.088Z,1.80
2018-07-20T22:33:49.222Z,1.87
2018-07-20T22:36:16.441Z,4.87
2018-07-20T22:38:43.603Z,7.83
2018-07-20T22:41:10.785Z,9.73
2018-07-20T22:43:38.238Z,4.23
2018-07-20T22:46:05.754Z,3.37
2018-07-20T22:48:32.945Z,2.57
2018-07-20T22:51:00.102Z,2.37
2018-07-20T22:53:27.264Z,2.50
2018-07-20T22:55:54.425Z,5.07
2018-07-20T22:58:21.593Z,3.83
2018-07-20T23:00:48.758Z,3.17
2018-07-20T23:03:15.917Z,4.17
2018-07-20T23:05:43.081Z,4.73
2018-07-20T23:08:10.221Z,3.17
2018-07-20T23:10:37.667Z,5.17
2018-07-20T23:13:04.849Z,3.73
2018-07-20T23:15:32.002Z,5.13
2018-07-20T23:17:59.160Z,2.07
2018-07-20T23:20:26.309Z,3.83
2018-07-20T23:22:53.463Z,6.57
2018-07-20T23:25:20.622Z,6.13
2018-07-20T23:27:47.763Z,3.63
2018-07-20T23:30:14.935Z,3.57
2018-07-20T23:32:42.100Z,5.03
2018-07-20T23:35:09.267Z,5.33
2018-07-20T23:37:36.497Z,2.13
2018-07-20T23:40:04.145Z,4.83
2018-07-20T23:42:31.295Z,3.03
2018-07-20T23:44:58.453Z,3.90
2018-07-20T23:47:25.645Z,3.13
2018-07-20T23:49:52.969Z,1.80
2018-07-20T23:52:20.179Z,6.70
2018-07-20T23:54:47.371Z,4.17
2018-07-20T23:57:14.848Z,4.67
2018-07-20T23:59:42.034Z,2.90
